sensor_id;sensor_type;location;lat;lon;timestamp;P1;durP1;ratioP1;P2;durP2;ratioP2
63350;SDS011;74263;51.058;17.040;2024-02-28T00:04:54;93.43;;;37.87;;
63350;SDS011;74263;51.058;17.040;2024-02-28T00:09:56;99.32;;;37.85;;
63350;SDS011;74263;51.058;17.040;2024-02-28T00:14:57;95.57;;;38.23;;
63350;SDS011;74263;51.058;17.040;2024-02-28T00:19:59;90.80;;;36.88;;
63350;SDS011;74263;51.058;17.040;2024-02-28T00:25:01;91.20;;;35.53;;
63350;SDS011;74263;51.058;17.040;2024-02-28T00:30:03;89.40;;;37.50;;
63350;SDS011;74263;51.058;17.040;2024-02-28T00:35:06;107.93;;;39.97;;
63350;SDS011;74263;51.058;17.040;2024-02-28T00:40:08;95.93;;;37.25;;
63350;SDS011;74263;51.058;17.040;2024-02-28T00:45:09;94.80;;;37.90;;
63350;SDS011;74263;51.058;17.040;2024-02-28T00:50:11;92.72;;;36.78;;
63350;SDS011;74263;51.058;17.040;2024-02-28T00:55:13;88.15;;;37.55;;
63350;SDS011;74263;51.058;17.040;2024-02-28T01:00:15;93.65;;;39.13;;
63350;SDS011;74263;51.058;17.040;2024-02-28T01:05:17;104.40;;;39.87;;
63350;SDS011;74263;51.058;17.040;2024-02-28T01:10:19;105.00;;;43.05;;
63350;SDS011;74263;51.058;17.040;2024-02-28T01:15:20;102.50;;;41.73;;
63350;SDS011;74263;51.058;17.040;2024-02-28T01:20:23;102.63;;;40.93;;
63350;SDS011;74263;51.058;17.040;2024-02-28T01:25:24;118.75;;;46.92;;
63350;SDS011;74263;51.058;17.040;2024-02-28T01:30:26;115.55;;;46.25;;
63350;SDS011;74263;51.058;17.040;2024-02-28T01:35:28;126.03;;;48.53;;
63350;SDS011;74263;51.058;17.040;2024-02-28T01:40:30;123.25;;;48.25;;
63350;SDS011;74263;51.058;17.040;2024-02-28T01:45:31;142.57;;;51.50;;
63350;SDS011;74263;51.058;17.040;2024-02-28T01:50:33;142.60;;;49.35;;
63350;SDS011;74263;51.058;17.040;2024-02-28T01:55:35;142.18;;;51.25;;
63350;SDS011;74263;51.058;17.040;2024-02-28T02:00:37;152.60;;;54.03;;
63350;SDS011;74263;51.058;17.040;2024-02-28T02:05:41;154.97;;;53.53;;
63350;SDS011;74263;51.058;17.040;2024-02-28T02:10:42;148.25;;;53.15;;
63350;SDS011;74263;51.058;17.040;2024-02-28T02:15:44;184.48;;;52.72;;
63350;SDS011;74263;51.058;17.040;2024-02-28T02:20:46;166.88;;;55.00;;
63350;SDS011;74263;51.058;17.040;2024-02-28T02:25:51;170.18;;;53.08;;
63350;SDS011;74263;51.058;17.040;2024-02-28T02:30:52;171.02;;;54.13;;
63350;SDS011;74263;51.058;17.040;2024-02-28T02:35:54;171.45;;;54.83;;
63350;SDS011;74263;51.058;17.040;2024-02-28T02:40:56;212.77;;;57.70;;
63350;SDS011;74263;51.058;17.040;2024-02-28T02:45:58;199.25;;;55.25;;
63350;SDS011;74263;51.058;17.040;2024-02-28T02:51:00;193.85;;;54.25;;
63350;SDS011;74263;51.058;17.040;2024-02-28T02:56:04;193.00;;;53.58;;
63350;SDS011;74263;51.058;17.040;2024-02-28T03:01:06;208.07;;;51.00;;
63350;SDS011;74263;51.058;17.040;2024-02-28T03:06:08;185.98;;;49.65;;
63350;SDS011;74263;51.058;17.040;2024-02-28T03:11:09;207.80;;;50.80;;
63350;SDS011;74263;51.058;17.040;2024-02-28T03:16:11;197.45;;;50.67;;
63350;SDS011;74263;51.058;17.040;2024-02-28T03:21:13;192.87;;;51.00;;
63350;SDS011;74263;51.058;17.040;2024-02-28T03:26:15;191.73;;;51.55;;
63350;SDS011;74263;51.058;17.040;2024-02-28T03:31:17;187.60;;;49.92;;
63350;SDS011;74263;51.058;17.040;2024-02-28T03:36:19;190.32;;;52.42;;
63350;SDS011;74263;51.058;17.040;2024-02-28T03:41:21;187.25;;;48.25;;
63350;SDS011;74263;51.058;17.040;2024-02-28T03:46:23;182.40;;;48.17;;
63350;SDS011;74263;51.058;17.040;2024-02-28T03:51:25;189.38;;;47.78;;
63350;SDS011;74263;51.058;17.040;2024-02-28T03:56:27;195.85;;;49.13;;
63350;SDS011;74263;51.058;17.040;2024-02-28T04:01:28;180.45;;;48.15;;
63350;SDS011;74263;51.058;17.040;2024-02-28T04:06:30;164.20;;;46.67;;
63350;SDS011;74263;51.058;17.040;2024-02-28T04:11:32;160.03;;;46.53;;
63350;SDS011;74263;51.058;17.040;2024-02-28T04:16:34;152.48;;;46.25;;
63350;SDS011;74263;51.058;17.040;2024-02-28T04:21:36;151.98;;;45.38;;
63350;SDS011;74263;51.058;17.040;2024-02-28T04:26:38;166.30;;;46.63;;
63350;SDS011;74263;51.058;17.040;2024-02-28T04:31:39;154.48;;;43.85;;
63350;SDS011;74263;51.058;17.040;2024-02-28T04:36:41;147.43;;;43.70;;
63350;SDS011;74263;51.058;17.040;2024-02-28T04:41:43;135.55;;;41.80;;
63350;SDS011;74263;51.058;17.040;2024-02-28T04:46:45;129.70;;;41.72;;
63350;SDS011;74263;51.058;17.040;2024-02-28T04:51:47;150.80;;;44.22;;
63350;SDS011;74263;51.058;17.040;2024-02-28T05:01:51;123.53;;;37.25;;
63350;SDS011;74263;51.058;17.040;2024-02-28T05:06:53;119.78;;;40.50;;
63350;SDS011;74263;51.058;17.040;2024-02-28T05:11:54;122.93;;;37.92;;
63350;SDS011;74263;51.058;17.040;2024-02-28T05:16:56;113.75;;;36.63;;
63350;SDS011;74263;51.058;17.040;2024-02-28T05:21:58;99.88;;;35.70;;
63350;SDS011;74263;51.058;17.040;2024-02-28T05:27:00;105.50;;;36.30;;
63350;SDS011;74263;51.058;17.040;2024-02-28T05:32:04;104.20;;;36.20;;
63350;SDS011;74263;51.058;17.040;2024-02-28T05:37:06;98.10;;;35.28;;
63350;SDS011;74263;51.058;17.040;2024-02-28T05:42:08;97.05;;;33.13;;
63350;SDS011;74263;51.058;17.040;2024-02-28T05:47:10;80.47;;;32.38;;
63350;SDS011;74263;51.058;17.040;2024-02-28T05:52:11;81.18;;;30.92;;
63350;SDS011;74263;51.058;17.040;2024-02-28T05:57:13;86.68;;;29.90;;
63350;SDS011;74263;51.058;17.040;2024-02-28T06:02:15;76.80;;;27.67;;
63350;SDS011;74263;51.058;17.040;2024-02-28T06:07:17;68.18;;;26.52;;
63350;SDS011;74263;51.058;17.040;2024-02-28T06:12:18;69.28;;;27.63;;
63350;SDS011;74263;51.058;17.040;2024-02-28T06:17:20;75.72;;;28.90;;
63350;SDS011;74263;51.058;17.040;2024-02-28T06:22:22;66.93;;;26.27;;
63350;SDS011;74263;51.058;17.040;2024-02-28T06:27:24;69.28;;;25.85;;
63350;SDS011;74263;51.058;17.040;2024-02-28T06:32:25;62.40;;;26.85;;
63350;SDS011;74263;51.058;17.040;2024-02-28T06:37:27;71.10;;;29.90;;
63350;SDS011;74263;51.058;17.040;2024-02-28T06:42:29;72.40;;;28.80;;
63350;SDS011;74263;51.058;17.040;2024-02-28T06:47:31;66.17;;;27.77;;
63350;SDS011;74263;51.058;17.040;2024-02-28T06:52:33;67.72;;;27.35;;
63350;SDS011;74263;51.058;17.040;2024-02-28T06:57:40;54.92;;;25.20;;
63350;SDS011;74263;51.058;17.040;2024-02-28T07:02:42;57.30;;;24.88;;
63350;SDS011;74263;51.058;17.040;2024-02-28T07:07:44;57.03;;;25.55;;
63350;SDS011;74263;51.058;17.040;2024-02-28T07:12:46;63.53;;;26.63;;
63350;SDS011;74263;51.058;17.040;2024-02-28T07:17:54;52.03;;;24.75;;
63350;SDS011;74263;51.058;17.040;2024-02-28T07:22:57;59.47;;;26.38;;
63350;SDS011;74263;51.058;17.040;2024-02-28T07:33:01;53.33;;;23.73;;
63350;SDS011;74263;51.058;17.040;2024-02-28T07:38:03;54.83;;;25.00;;
63350;SDS011;74263;51.058;17.040;2024-02-28T07:43:06;44.28;;;23.67;;
63350;SDS011;74263;51.058;17.040;2024-02-28T07:48:08;48.67;;;23.65;;
63350;SDS011;74263;51.058;17.040;2024-02-28T07:53:10;48.17;;;23.55;;
63350;SDS011;74263;51.058;17.040;2024-02-28T07:58:11;47.50;;;22.02;;
63350;SDS011;74263;51.058;17.040;2024-02-28T08:03:13;44.20;;;22.42;;
63350;SDS011;74263;51.058;17.040;2024-02-28T08:08:15;50.30;;;23.25;;
63350;SDS011;74263;51.058;17.040;2024-02-28T08:13:17;38.90;;;21.58;;
63350;SDS011;74263;51.058;17.040;2024-02-28T08:18:18;37.08;;;18.63;;
63350;SDS011;74263;51.058;17.040;2024-02-28T08:23:20;32.47;;;16.77;;
63350;SDS011;74263;51.058;17.040;2024-02-28T08:28:22;31.58;;;17.42;;
63350;SDS011;74263;51.058;17.040;2024-02-28T08:33:24;37.28;;;17.83;;
63350;SDS011;74263;51.058;17.040;2024-02-28T08:38:26;36.10;;;18.33;;
63350;SDS011;74263;51.058;17.040;2024-02-28T08:43:27;31.85;;;17.15;;
63350;SDS011;74263;51.058;17.040;2024-02-28T08:48:29;31.33;;;15.23;;
63350;SDS011;74263;51.058;17.040;2024-02-28T08:53:31;25.10;;;13.77;;
63350;SDS011;74263;51.058;17.040;2024-02-28T08:58:33;25.20;;;13.73;;
63350;SDS011;74263;51.058;17.040;2024-02-28T09:03:35;30.30;;;13.52;;
63350;SDS011;74263;51.058;17.040;2024-02-28T09:08:36;27.15;;;14.45;;
63350;SDS011;74263;51.058;17.040;2024-02-28T09:13:38;26.17;;;14.00;;
63350;SDS011;74263;51.058;17.040;2024-02-28T09:18:40;31.50;;;14.75;;
63350;SDS011;74263;51.058;17.040;2024-02-28T09:23:41;29.08;;;13.38;;
63350;SDS011;74263;51.058;17.040;2024-02-28T09:28:43;46.80;;;12.93;;
63350;SDS011;74263;51.058;17.040;2024-02-28T09:33:45;28.25;;;14.15;;
63350;SDS011;74263;51.058;17.040;2024-02-28T09:38:47;22.60;;;12.38;;
63350;SDS011;74263;51.058;17.040;2024-02-28T09:43:49;31.80;;;13.20;;
63350;SDS011;74263;51.058;17.040;2024-02-28T09:48:51;25.67;;;13.53;;
63350;SDS011;74263;51.058;17.040;2024-02-28T09:53:54;20.20;;;10.27;;
63350;SDS011;74263;51.058;17.040;2024-02-28T09:58:55;21.75;;;9.82;;
63350;SDS011;74263;51.058;17.040;2024-02-28T10:03:57;16.13;;;8.63;;
63350;SDS011;74263;51.058;17.040;2024-02-28T10:09:01;15.43;;;9.10;;
63350;SDS011;74263;51.058;17.040;2024-02-28T10:14:03;15.27;;;8.85;;
63350;SDS011;74263;51.058;17.040;2024-02-28T10:19:05;16.73;;;8.67;;
63350;SDS011;74263;51.058;17.040;2024-02-28T10:24:07;16.88;;;8.80;;
63350;SDS011;74263;51.058;17.040;2024-02-28T10:29:09;14.45;;;8.70;;
63350;SDS011;74263;51.058;17.040;2024-02-28T10:34:12;14.88;;;9.05;;
63350;SDS011;74263;51.058;17.040;2024-02-28T10:39:15;14.20;;;8.75;;
63350;SDS011;74263;51.058;17.040;2024-02-28T10:44:17;13.87;;;8.17;;
63350;SDS011;74263;51.058;17.040;2024-02-28T10:49:19;14.38;;;8.57;;
63350;SDS011;74263;51.058;17.040;2024-02-28T10:54:20;15.77;;;9.33;;
63350;SDS011;74263;51.058;17.040;2024-02-28T10:59:23;13.38;;;8.27;;
63350;SDS011;74263;51.058;17.040;2024-02-28T11:04:27;16.10;;;8.82;;
63350;SDS011;74263;51.058;17.040;2024-02-28T11:09:29;15.07;;;9.10;;
63350;SDS011;74263;51.058;17.040;2024-02-28T11:14:31;16.30;;;8.80;;
63350;SDS011;74263;51.058;17.040;2024-02-28T11:19:37;17.08;;;10.10;;
63350;SDS011;74263;51.058;17.040;2024-02-28T11:24:39;14.10;;;8.93;;
63350;SDS011;74263;51.058;17.040;2024-02-28T11:29:40;14.07;;;9.07;;
63350;SDS011;74263;51.058;17.040;2024-02-28T11:34:42;12.82;;;7.78;;
63350;SDS011;74263;51.058;17.040;2024-02-28T11:39:47;15.77;;;8.73;;
63350;SDS011;74263;51.058;17.040;2024-02-28T11:44:54;13.23;;;7.85;;
63350;SDS011;74263;51.058;17.040;2024-02-28T11:50:01;15.50;;;8.77;;
63350;SDS011;74263;51.058;17.040;2024-02-28T11:55:05;18.67;;;9.43;;
63350;SDS011;74263;51.058;17.040;2024-02-28T12:00:07;17.03;;;7.67;;
63350;SDS011;74263;51.058;17.040;2024-02-28T12:05:09;10.70;;;7.27;;
63350;SDS011;74263;51.058;17.040;2024-02-28T12:10:11;9.82;;;6.97;;
63350;SDS011;74263;51.058;17.040;2024-02-28T12:15:13;13.80;;;7.97;;
63350;SDS011;74263;51.058;17.040;2024-02-28T12:20:15;13.13;;;8.00;;
63350;SDS011;74263;51.058;17.040;2024-02-28T12:25:16;16.30;;;8.23;;
63350;SDS011;74263;51.058;17.040;2024-02-28T12:35:21;15.73;;;8.88;;
63350;SDS011;74263;51.058;17.040;2024-02-28T12:40:23;17.38;;;9.15;;
63350;SDS011;74263;51.058;17.040;2024-02-28T12:45:25;15.25;;;8.60;;
63350;SDS011;74263;51.058;17.040;2024-02-28T12:50:27;15.65;;;9.05;;
63350;SDS011;74263;51.058;17.040;2024-02-28T12:55:28;16.23;;;9.55;;
63350;SDS011;74263;51.058;17.040;2024-02-28T13:00:31;17.70;;;9.07;;
63350;SDS011;74263;51.058;17.040;2024-02-28T13:05:33;16.13;;;9.77;;
63350;SDS011;74263;51.058;17.040;2024-02-28T13:10:34;17.65;;;9.80;;
63350;SDS011;74263;51.058;17.040;2024-02-28T13:15:36;22.55;;;10.68;;
63350;SDS011;74263;51.058;17.040;2024-02-28T13:20:38;22.42;;;11.50;;
63350;SDS011;74263;51.058;17.040;2024-02-28T13:25:40;23.43;;;12.07;;
63350;SDS011;74263;51.058;17.040;2024-02-28T13:30:42;22.88;;;12.88;;
63350;SDS011;74263;51.058;17.040;2024-02-28T13:35:43;23.83;;;12.77;;
63350;SDS011;74263;51.058;17.040;2024-02-28T13:40:48;28.13;;;13.55;;
63350;SDS011;74263;51.058;17.040;2024-02-28T13:45:50;30.90;;;14.38;;
63350;SDS011;74263;51.058;17.040;2024-02-28T13:50:52;31.42;;;15.45;;
63350;SDS011;74263;51.058;17.040;2024-02-28T13:55:54;31.73;;;14.93;;
63350;SDS011;74263;51.058;17.040;2024-02-28T14:00:56;38.60;;;15.70;;
63350;SDS011;74263;51.058;17.040;2024-02-28T14:05:58;35.40;;;14.80;;
63350;SDS011;74263;51.058;17.040;2024-02-28T14:11:00;33.90;;;15.40;;
63350;SDS011;74263;51.058;17.040;2024-02-28T14:16:02;29.15;;;13.43;;
63350;SDS011;74263;51.058;17.040;2024-02-28T14:21:04;26.43;;;12.73;;
63350;SDS011;74263;51.058;17.040;2024-02-28T14:26:09;25.42;;;12.77;;
63350;SDS011;74263;51.058;17.040;2024-02-28T14:31:22;27.53;;;13.73;;
63350;SDS011;74263;51.058;17.040;2024-02-28T14:36:23;25.50;;;12.35;;
63350;SDS011;74263;51.058;17.040;2024-02-28T14:41:25;23.27;;;11.27;;
63350;SDS011;74263;51.058;17.040;2024-02-28T14:46:27;23.67;;;11.60;;
63350;SDS011;74263;51.058;17.040;2024-02-28T14:51:29;22.10;;;10.73;;
63350;SDS011;74263;51.058;17.040;2024-02-28T14:56:31;19.17;;;9.70;;
63350;SDS011;74263;51.058;17.040;2024-02-28T15:01:33;24.63;;;11.20;;
63350;SDS011;74263;51.058;17.040;2024-02-28T15:06:35;23.00;;;11.40;;
63350;SDS011;74263;51.058;17.040;2024-02-28T15:11:37;20.67;;;10.63;;
63350;SDS011;74263;51.058;17.040;2024-02-28T15:16:39;18.80;;;9.95;;
63350;SDS011;74263;51.058;17.040;2024-02-28T15:21:41;16.30;;;8.95;;
63350;SDS011;74263;51.058;17.040;2024-02-28T15:26:43;19.03;;;9.57;;
63350;SDS011;74263;51.058;17.040;2024-02-28T15:31:47;20.60;;;10.50;;
63350;SDS011;74263;51.058;17.040;2024-02-28T15:36:49;18.42;;;9.40;;
63350;SDS011;74263;51.058;17.040;2024-02-28T15:41:51;16.45;;;9.55;;
63350;SDS011;74263;51.058;17.040;2024-02-28T15:46:53;20.38;;;10.82;;
63350;SDS011;74263;51.058;17.040;2024-02-28T15:51:54;21.50;;;13.20;;
63350;SDS011;74263;51.058;17.040;2024-02-28T15:56:57;25.27;;;12.27;;
63350;SDS011;74263;51.058;17.040;2024-02-28T16:01:58;23.52;;;11.88;;
63350;SDS011;74263;51.058;17.040;2024-02-28T16:07:00;27.25;;;12.40;;
63350;SDS011;74263;51.058;17.040;2024-02-28T16:12:02;29.88;;;14.05;;
63350;SDS011;74263;51.058;17.040;2024-02-28T16:17:04;29.13;;;14.37;;
63350;SDS011;74263;51.058;17.040;2024-02-28T16:22:06;26.23;;;14.25;;
63350;SDS011;74263;51.058;17.040;2024-02-28T16:27:08;28.17;;;13.60;;
63350;SDS011;74263;51.058;17.040;2024-02-28T16:32:10;32.20;;;15.50;;
63350;SDS011;74263;51.058;17.040;2024-02-28T16:37:12;30.75;;;15.90;;
63350;SDS011;74263;51.058;17.040;2024-02-28T16:42:14;31.02;;;14.60;;
63350;SDS011;74263;51.058;17.040;2024-02-28T16:47:15;32.67;;;15.68;;
63350;SDS011;74263;51.058;17.040;2024-02-28T16:52:17;39.72;;;18.55;;
63350;SDS011;74263;51.058;17.040;2024-02-28T16:57:19;37.87;;;17.60;;
63350;SDS011;74263;51.058;17.040;2024-02-28T17:02:21;35.45;;;16.65;;
63350;SDS011;74263;51.058;17.040;2024-02-28T17:07:23;34.17;;;17.02;;
63350;SDS011;74263;51.058;17.040;2024-02-28T17:12:24;35.53;;;17.42;;
63350;SDS011;74263;51.058;17.040;2024-02-28T17:17:27;35.85;;;16.15;;
63350;SDS011;74263;51.058;17.040;2024-02-28T17:22:28;41.95;;;16.83;;
63350;SDS011;74263;51.058;17.040;2024-02-28T17:27:30;35.95;;;16.52;;
63350;SDS011;74263;51.058;17.040;2024-02-28T17:32:32;36.63;;;17.57;;
63350;SDS011;74263;51.058;17.040;2024-02-28T17:37:34;35.60;;;17.20;;
63350;SDS011;74263;51.058;17.040;2024-02-28T17:42:36;42.50;;;18.90;;
63350;SDS011;74263;51.058;17.040;2024-02-28T17:47:38;40.72;;;18.98;;
63350;SDS011;74263;51.058;17.040;2024-02-28T17:52:40;46.50;;;19.92;;
63350;SDS011;74263;51.058;17.040;2024-02-28T17:57:43;44.78;;;19.08;;
63350;SDS011;74263;51.058;17.040;2024-02-28T18:02:45;47.80;;;19.55;;
63350;SDS011;74263;51.058;17.040;2024-02-28T18:07:47;52.80;;;21.08;;
63350;SDS011;74263;51.058;17.040;2024-02-28T18:12:49;40.95;;;18.13;;
63350;SDS011;74263;51.058;17.040;2024-02-28T18:17:51;37.50;;;17.30;;
63350;SDS011;74263;51.058;17.040;2024-02-28T18:22:53;40.20;;;17.25;;
63350;SDS011;74263;51.058;17.040;2024-02-28T18:27:54;35.28;;;16.80;;
63350;SDS011;74263;51.058;17.040;2024-02-28T18:32:56;33.00;;;15.88;;
63350;SDS011;74263;51.058;17.040;2024-02-28T18:37:58;38.45;;;15.77;;
63350;SDS011;74263;51.058;17.040;2024-02-28T18:43:00;40.55;;;17.15;;
63350;SDS011;74263;51.058;17.040;2024-02-28T18:48:02;37.70;;;16.77;;
63350;SDS011;74263;51.058;17.040;2024-02-28T18:53:04;34.47;;;16.47;;
63350;SDS011;74263;51.058;17.040;2024-02-28T18:58:06;44.23;;;18.87;;
63350;SDS011;74263;51.058;17.040;2024-02-28T19:03:08;37.30;;;16.50;;
63350;SDS011;74263;51.058;17.040;2024-02-28T19:08:10;41.58;;;17.13;;
63350;SDS011;74263;51.058;17.040;2024-02-28T19:13:13;41.47;;;17.00;;
63350;SDS011;74263;51.058;17.040;2024-02-28T19:18:15;46.40;;;19.35;;
63350;SDS011;74263;51.058;17.040;2024-02-28T19:23:18;52.38;;;19.58;;
63350;SDS011;74263;51.058;17.040;2024-02-28T19:28:20;48.65;;;18.75;;
63350;SDS011;74263;51.058;17.040;2024-02-28T19:33:22;41.10;;;17.92;;
63350;SDS011;74263;51.058;17.040;2024-02-28T19:38:23;47.22;;;18.13;;
63350;SDS011;74263;51.058;17.040;2024-02-28T19:43:25;47.08;;;19.75;;
63350;SDS011;74263;51.058;17.040;2024-02-28T19:48:27;45.20;;;19.07;;
63350;SDS011;74263;51.058;17.040;2024-02-28T19:53:29;47.97;;;18.05;;
63350;SDS011;74263;51.058;17.040;2024-02-28T19:58:33;46.33;;;19.50;;
63350;SDS011;74263;51.058;17.040;2024-02-28T20:03:35;47.00;;;20.70;;
63350;SDS011;74263;51.058;17.040;2024-02-28T20:08:37;45.25;;;18.58;;
63350;SDS011;74263;51.058;17.040;2024-02-28T20:13:39;47.87;;;20.87;;
63350;SDS011;74263;51.058;17.040;2024-02-28T20:18:41;48.57;;;19.50;;
63350;SDS011;74263;51.058;17.040;2024-02-28T20:23:43;46.67;;;19.80;;
63350;SDS011;74263;51.058;17.040;2024-02-28T20:28:45;53.25;;;20.90;;
63350;SDS011;74263;51.058;17.040;2024-02-28T20:33:46;54.97;;;22.00;;
63350;SDS011;74263;51.058;17.040;2024-02-28T20:38:48;54.65;;;22.83;;
63350;SDS011;74263;51.058;17.040;2024-02-28T20:43:50;48.97;;;21.30;;
63350;SDS011;74263;51.058;17.040;2024-02-28T20:48:52;43.93;;;19.73;;
63350;SDS011;74263;51.058;17.040;2024-02-28T20:53:56;48.35;;;21.00;;
63350;SDS011;74263;51.058;17.040;2024-02-28T21:04:02;55.53;;;22.90;;
63350;SDS011;74263;51.058;17.040;2024-02-28T21:09:04;57.27;;;23.00;;
63350;SDS011;74263;51.058;17.040;2024-02-28T21:14:06;57.42;;;24.13;;
63350;SDS011;74263;51.058;17.040;2024-02-28T21:24:12;54.37;;;21.43;;
63350;SDS011;74263;51.058;17.040;2024-02-28T21:29:14;41.55;;;17.75;;
63350;SDS011;74263;51.058;17.040;2024-02-28T21:34:16;39.45;;;16.58;;
63350;SDS011;74263;51.058;17.040;2024-02-28T21:39:18;43.43;;;19.60;;
63350;SDS011;74263;51.058;17.040;2024-02-28T21:44:19;44.60;;;16.85;;
63350;SDS011;74263;51.058;17.040;2024-02-28T21:49:21;43.50;;;16.90;;
63350;SDS011;74263;51.058;17.040;2024-02-28T21:54:23;45.53;;;17.97;;
63350;SDS011;74263;51.058;17.040;2024-02-28T21:59:25;44.47;;;18.02;;
63350;SDS011;74263;51.058;17.040;2024-02-28T22:04:27;46.47;;;17.73;;
63350;SDS011;74263;51.058;17.040;2024-02-28T22:09:28;36.40;;;16.55;;
63350;SDS011;74263;51.058;17.040;2024-02-28T22:14:30;37.17;;;15.38;;
63350;SDS011;74263;51.058;17.040;2024-02-28T22:19:31;39.80;;;16.02;;
63350;SDS011;74263;51.058;17.040;2024-02-28T22:24:33;38.93;;;15.17;;
63350;SDS011;74263;51.058;17.040;2024-02-28T22:29:35;34.20;;;14.77;;
63350;SDS011;74263;51.058;17.040;2024-02-28T22:34:37;35.77;;;15.33;;
63350;SDS011;74263;51.058;17.040;2024-02-28T22:39:39;34.45;;;14.98;;
63350;SDS011;74263;51.058;17.040;2024-02-28T22:44:41;35.88;;;14.88;;
63350;SDS011;74263;51.058;17.040;2024-02-28T22:49:43;37.25;;;16.05;;
63350;SDS011;74263;51.058;17.040;2024-02-28T22:54:44;42.13;;;16.35;;
63350;SDS011;74263;51.058;17.040;2024-02-28T22:59:46;33.83;;;15.70;;
63350;SDS011;74263;51.058;17.040;2024-02-28T23:04:48;34.83;;;14.97;;
63350;SDS011;74263;51.058;17.040;2024-02-28T23:09:50;43.33;;;17.52;;
63350;SDS011;74263;51.058;17.040;2024-02-28T23:14:52;40.00;;;16.33;;
63350;SDS011;74263;51.058;17.040;2024-02-28T23:19:54;38.53;;;15.82;;
63350;SDS011;74263;51.058;17.040;2024-02-28T23:24:55;34.42;;;15.15;;
63350;SDS011;74263;51.058;17.040;2024-02-28T23:29:57;37.77;;;17.40;;
63350;SDS011;74263;51.058;17.040;2024-02-28T23:34:59;38.05;;;15.88;;
63350;SDS011;74263;51.058;17.040;2024-02-28T23:40:01;43.97;;;16.83;;
63350;SDS011;74263;51.058;17.040;2024-02-28T23:45:03;42.87;;;18.80;;
63350;SDS011;74263;51.058;17.040;2024-02-28T23:50:05;42.80;;;18.83;;
63350;SDS011;74263;51.058;17.040;2024-02-28T23:55:07;48.77;;;18.63;;
